Time;durP1;ratioP1;P1;durP2;ratioP2;P2;SDS_P1;SDS_P2;PMS_P1;PMS_P2;Temp;Humidity;BMP_temperature;BMP_pressure;BME280_temperature;BME280_humidity;BME280_pressure;Samples;Min_cycle;Max_cycle;Signal;HPM_P1;HPM_P2
2022/06/20 01:00:01;;;;;;;4.93;3.45;;;;;;;21.40;63.33;99639.56;4955754;28;20058;-92
2022/06/20 01:02:32;;;;;;;8.10;4.10;;;;;;;21.33;63.05;99619.72;4938613;28;20055;-90
2022/06/20 01:04:59;;;;;;;7.93;4.25;;;;;;;21.34;63.67;99616.78;4932895;28;20047;-90
2022/06/20 01:07:33;;;;;;;7.67;4.30;;;;;;;21.24;63.56;99618.25;4916391;28;20500;-89
2022/06/20 01:10:00;;;;;;;6.93;4.03;;;;;;;21.11;63.90;99610.97;4922394;28;20336;-88
2022/06/20 01:12:28;;;;;;;6.20;4.25;;;;;;;21.12;64.68;99604.47;4923827;28;20086;-88
2022/06/20 01:14:54;;;;;;;7.93;4.50;;;;;;;21.06;65.19;99580.84;4919151;28;20219;-88
2022/06/20 01:17:32;;;;;;;5.97;4.60;;;;;;;20.75;65.45;99567.97;4923237;28;20145;-89
2022/06/20 01:20:09;;;;;;;9.13;4.65;;;;;;;20.80;66.47;99542.88;4921267;28;20031;-88
2022/06/20 01:22:46;;;;;;;6.32;4.05;;;;;;;20.91;66.38;99540.34;4939705;28;20058;-88
2022/06/20 01:25:36;;;;;;;7.43;5.10;;;;;;;20.89;67.13;99511.69;4935780;28;20536;-87
2022/06/20 01:28:02;;;;;;;8.07;5.25;;;;;;;20.85;67.42;99495.00;4933843;28;20031;-88
2022/06/20 01:30:32;;;;;;;7.05;5.03;;;;;;;20.67;66.78;99464.94;4938533;28;20023;-88
2022/06/20 01:32:58;;;;;;;7.40;5.03;;;;;;;20.62;66.85;99427.53;4940733;28;20503;-88
2022/06/20 01:38:09;;;;;;;6.85;4.55;;;;;;;20.53;67.87;99358.19;4937418;28;20760;-88
2022/06/20 01:40:35;;;;;;;7.18;4.40;;;;;;;20.48;67.98;99328.13;4940600;28;20086;-88
2022/06/20 01:43:00;;;;;;;5.55;3.90;;;;;;;20.47;67.95;99285.72;4920100;28;20043;-88
2022/06/20 01:48:12;;;;;;;6.07;3.67;;;;;;;20.35;66.76;99241.25;4942934;28;20042;-87
2022/06/20 01:50:40;;;;;;;5.70;3.45;;;;;;;20.35;66.62;99219.53;4921129;28;20038;-87
2022/06/20 01:53:07;;;;;;;5.57;3.60;;;;;;;20.15;67.00;99222.34;4923376;28;20051;-88
2022/06/20 01:55:33;;;;;;;7.97;3.60;;;;;;;20.15;66.76;99229.66;4923879;28;20023;-87
2022/06/20 01:58:06;;;;;;;4.93;3.20;;;;;;;20.07;66.69;99225.31;4925793;28;20066;-89
2022/06/20 02:00:31;;;;;;;5.13;3.30;;;;;;;20.07;66.97;99218.00;4929725;28;20027;-87
2022/06/20 02:03:00;;;;;;;5.82;3.88;;;;;;;19.99;67.59;99209.28;4928247;28;20051;-88
2022/06/20 02:05:28;;;;;;;5.90;4.30;;;;;;;19.82;68.67;99206.22;4926275;28;20026;-89
2022/06/20 02:07:57;;;;;;;7.03;4.63;;;;;;;19.76;69.15;99185.38;4941364;28;20083;-89
2022/06/20 02:10:30;;;;;;;6.00;4.28;;;;;;;19.75;69.04;99175.56;4925561;28;20138;-89
2022/06/20 02:12:57;;;;;;;5.38;4.57;;;;;;;19.88;68.38;99190.97;4924625;28;20036;-89
2022/06/20 02:15:24;;;;;;;6.50;4.63;;;;;;;19.78;67.97;99213.13;4936682;28;20023;-89
2022/06/20 02:17:51;;;;;;;6.13;4.05;;;;;;;19.47;68.01;99227.41;4926663;28;20378;-89
2022/06/20 02:20:20;;;;;;;5.15;3.90;;;;;;;19.63;66.84;99235.13;4924909;28;20073;-88
2022/06/20 02:22:47;;;;;;;5.10;3.90;;;;;;;19.33;66.56;99263.72;4927391;28;20031;-88
2022/06/20 02:25:15;;;;;;;6.25;3.60;;;;;;;19.05;67.69;99289.22;4928734;28;20036;-89
2022/06/20 02:27:47;;;;;;;5.15;3.33;;;;;;;18.82;68.47;99284.19;4941373;28;20114;-88
2022/06/20 02:30:12;;;;;;;5.30;3.38;;;;;;;18.63;69.18;99301.25;4924872;28;20174;-88
2022/06/20 02:32:43;;;;;;;5.18;3.00;;;;;;;18.67;69.39;99293.56;4924601;28;20161;-87
2022/06/20 02:35:12;;;;;;;5.32;3.00;;;;;;;18.79;68.28;99291.91;4923018;28;20178;-88
2022/06/20 02:37:38;;;;;;;6.18;3.45;;;;;;;18.63;68.21;99286.88;4923768;28;20019;-88
2022/06/20 02:40:07;;;;;;;4.25;3.30;;;;;;;18.75;68.67;99291.47;4928715;28;20486;-87
2022/06/20 02:42:35;;;;;;;5.18;2.85;;;;;;;18.70;68.45;99299.41;4924304;28;20220;-88
2022/06/20 02:45:03;;;;;;;4.57;3.65;;;;;;;18.92;68.31;99281.09;4926206;28;20023;-88
2022/06/20 02:47:30;;;;;;;5.82;3.92;;;;;;;19.02;67.30;99273.38;4953543;28;20114;-88
2022/06/20 02:49:57;;;;;;;5.93;4.00;;;;;;;18.83;67.51;99266.88;4939816;28;20227;-89
2022/06/20 02:52:31;;;;;;;5.43;3.65;;;;;;;18.53;67.65;99269.13;4928767;28;20031;-88
2022/06/20 02:54:57;;;;;;;4.85;3.58;;;;;;;18.45;68.36;99260.38;4932403;28;20039;-87
2022/06/20 02:57:33;;;;;;;5.57;3.25;;;;;;;18.43;68.21;99262.44;4927066;28;20031;-88
2022/06/20 02:59:59;;;;;;;5.80;3.25;;;;;;;18.74;68.21;99262.72;4916413;28;20023;-88
2022/06/20 03:02:27;;;;;;;4.90;3.63;;;;;;;18.60;67.72;99249.34;4921369;28;20074;-87
2022/06/20 03:04:53;;;;;;;4.67;3.10;;;;;;;18.47;68.18;99247.47;4926651;28;20033;-87
2022/06/20 03:07:22;;;;;;;6.32;3.28;;;;;;;18.52;68.55;99250.38;4934332;28;20035;-88
2022/06/20 03:09:53;;;;;;;4.03;3.20;;;;;;;18.59;68.55;99261.22;4920331;28;20065;-87
2022/06/20 03:12:18;;;;;;;4.68;3.13;;;;;;;18.41;68.09;99287.00;4925492;28;20054;-87
2022/06/20 03:14:48;;;;;;;5.47;3.20;;;;;;;18.68;68.78;99297.94;4925907;28;20639;-88
2022/06/20 03:17:19;;;;;;;5.05;3.47;;;;;;;18.69;67.58;99326.69;4922333;28;20030;-88
2022/06/20 03:19:48;;;;;;;3.45;3.08;;;;;;;18.82;67.63;99343.78;4921370;28;20031;-88
2022/06/20 03:22:18;;;;;;;6.10;3.50;;;;;;;19.21;66.33;99361.16;4937176;28;20033;-88
2022/06/20 03:24:45;;;;;;;4.97;3.17;;;;;;;19.25;66.51;99373.25;4925985;28;20030;-88
2022/06/20 03:27:27;;;;;;;4.75;3.28;;;;;;;19.45;66.85;99403.09;4923749;28;20027;-88
2022/06/20 03:29:54;;;;;;;5.38;3.42;;;;;;;19.60;66.15;99428.16;4938355;28;20027;-88
2022/06/20 03:32:22;;;;;;;7.18;4.30;;;;;;;19.59;65.84;99445.47;4919294;28;20492;-88
2022/06/20 03:34:47;;;;;;;5.75;3.92;;;;;;;19.33;65.49;99459.81;4922121;28;20149;-88
2022/06/20 03:37:13;;;;;;;7.05;4.40;;;;;;;19.11;66.23;99485.41;4921612;28;20035;-87
2022/06/20 03:39:38;;;;;;;6.72;5.20;;;;;;;19.25;66.24;99499.84;4935537;28;20209;-87
2022/06/20 03:42:04;;;;;;;6.30;5.03;;;;;;;19.06;65.93;99512.31;4929747;28;20031;-87
2022/06/20 03:44:59;;;;;;;5.80;5.03;;;;;;;18.94;66.99;99522.91;4926919;28;20149;-86
2022/06/20 03:47:27;;;;;;;6.38;5.25;;;;;;;18.99;67.37;99533.13;4932013;28;20035;-87
2022/06/20 03:49:58;;;;;;;6.65;5.55;;;;;;;19.09;67.09;99552.56;4922925;28;20030;-87
2022/06/20 03:52:25;;;;;;;6.20;4.95;;;;;;;19.06;67.81;99566.53;4923328;28;20130;-88
2022/06/20 03:54:53;;;;;;;5.47;4.97;;;;;;;19.01;67.49;99548.16;4940494;28;20083;-86
2022/06/20 03:57:22;;;;;;;6.35;4.72;;;;;;;18.94;68.35;99551.88;4936497;28;20047;-87
2022/06/20 03:59:48;;;;;;;;;;;;;;;19.10;68.49;99555.06;4925581;28;20505;-87
2022/06/20 04:02:17;;;;;;;5.10;4.20;;;;;;;19.07;68.12;99574.44;4920019;29;20222;-87
2022/06/20 04:05:03;;;;;;;5.40;3.97;;;;;;;18.90;68.00;99569.56;4921603;29;20027;-87
2022/06/20 04:07:34;;;;;;;7.07;4.10;;;;;;;18.59;68.43;99568.13;4933949;29;20159;-87
2022/06/20 04:13:07;;;;;;;7.40;3.65;;;;;;;18.60;69.38;99556.25;4924980;29;20104;-88
2022/06/20 04:15:35;;;;;;;6.07;3.75;;;;;;;18.53;69.82;99550.78;4934651;29;20063;-88
2022/06/20 04:18:27;;;;;;;4.00;3.15;;;;;;;18.37;70.45;99536.72;4927149;29;20024;-88
2022/06/20 04:20:58;;;;;;;5.82;3.20;;;;;;;18.52;71.16;99522.03;4918907;29;20043;-87
2022/06/20 04:23:34;;;;;;;5.20;3.08;;;;;;;18.46;71.40;99513.88;4913126;29;20071;-87
2022/06/20 04:26:17;;;;;;;4.72;3.10;;;;;;;18.52;71.73;99519.34;4917731;29;20031;-88
2022/06/20 04:29:04;;;;;;;5.32;2.80;;;;;;;18.69;70.82;99524.44;4920668;29;20646;-87
2022/06/20 04:32:01;;;;;;;3.95;2.35;;;;;;;18.63;70.32;99515.25;4917641;29;20497;-89
2022/06/20 04:34:41;;;;;;;4.95;2.38;;;;;;;18.63;71.64;99517.13;4924901;29;20047;-87
2022/06/20 04:37:15;;;;;;;4.50;2.60;;;;;;;18.43;70.26;99520.50;4928826;29;20031;-87
2022/06/20 04:40:09;;;;;;;6.55;2.50;;;;;;;18.32;71.10;99523.78;4927048;29;20059;-87
2022/06/20 04:42:41;;;;;;;4.18;2.55;;;;;;;18.36;71.16;99521.50;4927359;29;20089;-87
2022/06/20 04:45:25;;;;;;;5.13;2.35;;;;;;;18.37;70.56;99517.75;4912596;29;20114;-88
2022/06/20 04:47:55;;;;;;;5.43;2.58;;;;;;;18.54;71.00;99516.41;4928710;29;20027;-87
2022/06/20 04:50:23;;;;;;;5.53;2.70;;;;;;;18.52;70.84;99508.50;4917574;29;20063;-87
2022/06/20 04:52:50;;;;;;;6.63;2.67;;;;;;;18.43;70.32;99498.00;4921844;29;20062;-88
2022/06/20 04:55:19;;;;;;;3.97;2.55;;;;;;;18.59;70.32;99481.44;4916932;29;20040;-87
2022/06/20 04:57:45;;;;;;;4.10;2.40;;;;;;;18.49;71.02;99478.28;4917984;29;20139;-88
2022/06/20 05:00:18;;;;;;;5.68;2.90;;;;;;;18.64;70.90;99475.44;4903159;29;20138;-88
2022/06/20 05:02:44;;;;;;;3.92;2.60;;;;;;;18.84;71.29;99460.94;4912752;29;20051;-88
2022/06/20 05:05:13;;;;;;;4.63;2.38;;;;;;;18.77;70.35;99457.38;4899974;29;20035;-88
2022/06/20 05:07:39;;;;;;;2.88;2.00;;;;;;;18.77;70.66;99465.50;4904376;29;20032;-88
2022/06/20 05:10:17;;;;;;;3.75;2.15;;;;;;;18.84;70.17;99471.78;4907166;29;20078;-88
2022/06/20 05:12:57;;;;;;;5.10;2.55;;;;;;;18.82;70.27;99468.44;4909081;29;20031;-89
2022/06/20 05:15:44;;;;;;;5.63;2.50;;;;;;;18.88;69.51;99473.03;4901691;29;20047;-89
2022/06/20 05:18:24;;;;;;;4.72;2.30;;;;;;;18.82;70.45;99468.44;4900028;29;20027;-88
2022/06/20 05:20:53;;;;;;;3.58;2.17;;;;;;;18.69;70.32;99479.22;4928926;28;20074;-90
2022/06/20 05:23:27;;;;;;;4.72;2.22;;;;;;;18.80;70.28;99492.19;4914166;29;20097;-88
2022/06/20 05:25:54;;;;;;;3.38;2.38;;;;;;;18.73;70.35;99493.19;4916007;29;20063;-87
2022/06/20 05:28:23;;;;;;;3.55;2.22;;;;;;;18.67;70.33;99502.97;4901178;29;20027;-89
2022/06/20 05:30:48;;;;;;;4.30;2.20;;;;;;;18.73;70.36;99504.03;4900460;29;20095;-89
2022/06/20 05:33:54;;;;;;;5.13;2.45;;;;;;;18.55;70.01;99501.84;4917830;29;20098;-89
2022/06/20 05:36:26;;;;;;;7.45;2.50;;;;;;;18.58;70.77;99498.72;4889322;29;20042;-89
2022/06/20 05:38:59;;;;;;;5.88;2.40;;;;;;;18.59;69.88;99497.69;4918466;29;20027;-89
2022/06/20 05:41:24;;;;;;;6.00;2.72;;;;;;;18.56;70.63;99498.94;4900879;29;20031;-90
2022/06/20 05:43:50;;;;;;;5.65;2.30;;;;;;;18.46;70.19;99494.94;4905747;29;20478;-90
2022/06/20 05:46:32;;;;;;;5.05;2.60;;;;;;;18.56;69.78;99496.22;4909385;29;20112;-89
2022/06/20 05:49:04;;;;;;;4.72;2.40;;;;;;;18.70;69.58;99512.56;4901480;29;20023;-91
2022/06/20 05:51:31;;;;;;;4.13;2.33;;;;;;;18.63;69.74;99526.09;4907995;29;20038;-90
2022/06/20 05:53:59;;;;;;;3.47;1.90;;;;;;;18.56;69.62;99533.31;4906282;29;20534;-90
2022/06/20 05:56:33;;;;;;;4.45;2.20;;;;;;;18.55;69.82;99539.75;4911091;29;20035;-90
2022/06/20 05:58:59;;;;;;;4.15;1.90;;;;;;;18.68;69.52;99520.91;4902246;29;20047;-88
2022/06/20 06:01:31;;;;;;;4.85;2.28;;;;;;;18.58;69.31;99530.41;4923213;28;20138;-87
2022/06/20 06:04:16;;;;;;;5.65;2.38;;;;;;;18.37;70.06;99547.53;4921272;28;20034;-87
2022/06/20 06:06:48;;;;;;;4.95;2.40;;;;;;;18.18;69.83;99543.66;4940261;28;20054;-88
2022/06/20 06:09:44;;;;;;;3.45;2.00;;;;;;;18.21;70.13;99533.28;4933074;28;20536;-88
2022/06/20 06:12:15;;;;;;;4.43;1.98;;;;;;;18.30;70.75;99538.53;4917982;28;20034;-88
2022/06/20 06:14:55;;;;;;;4.57;2.20;;;;;;;18.24;69.69;99561.81;4936904;28;20058;-87
2022/06/20 06:17:33;;;;;;;4.55;2.40;;;;;;;18.45;70.17;99572.63;4924483;28;20027;-88
2022/06/20 06:20:03;;;;;;;;;;;;;;;18.17;69.88;99569.06;4926064;28;20038;-88
2022/06/20 06:22:33;;;;;;;4.53;2.05;;;;;;;18.14;70.78;99570.28;4935018;28;20670;-87
2022/06/20 06:25:03;;;;;;;5.28;1.67;;;;;;;18.18;70.67;99568.03;4934827;28;20035;-87
2022/06/20 06:27:34;;;;;;;6.78;2.10;;;;;;;18.45;71.67;99575.31;4917431;28;20044;-88
2022/06/20 06:30:04;;;;;;;5.85;2.10;;;;;;;18.36;70.67;99578.34;4917461;28;20485;-88
2022/06/20 06:32:41;;;;;;;3.03;1.88;;;;;;;18.41;72.16;99575.88;4912656;28;20429;-87
2022/06/20 06:35:06;;;;;;;7.15;2.17;;;;;;;18.47;71.83;99584.09;4913713;28;20557;-87
2022/06/20 06:38:00;;;;;;;4.45;1.92;;;;;;;18.46;71.71;99587.00;4930608;28;20062;-86
2022/06/20 06:40:49;;;;;;;4.63;1.83;;;;;;;18.41;72.44;99603.81;4915425;28;20099;-88
2022/06/20 06:43:24;;;;;;;;;;;;;;;18.55;74.04;99597.47;4954162;28;20199;-87
2022/06/20 06:45:53;;;;;;;6.07;2.00;;;;;;;18.40;74.16;99602.13;4933955;28;19918;-88
2022/06/20 06:48:22;;;;;;;7.28;1.95;;;;;;;18.40;73.96;99594.00;4925552;28;20027;-87
2022/06/20 06:50:53;;;;;;;7.25;2.13;;;;;;;18.39;75.51;99595.03;4955903;28;20034;-87
2022/06/20 06:53:33;;;;;;;6.32;2.45;;;;;;;18.37;76.04;99593.56;4926503;28;20030;-88
2022/06/20 06:56:31;;;;;;;7.38;2.05;;;;;;;18.34;76.13;99589.38;4921497;28;20099;-87
2022/06/20 06:59:04;;;;;;;6.22;2.05;;;;;;;18.60;77.04;99610.41;4924335;28;20718;-88
2022/06/20 07:01:36;;;;;;;5.25;2.03;;;;;;;18.67;75.90;99614.03;4939641;28;20050;-88
2022/06/20 07:04:16;;;;;;;5.43;2.10;;;;;;;18.41;76.27;99611.94;4939331;28;20030;-89
2022/06/20 07:07:25;;;;;;;6.88;2.15;;;;;;;18.51;77.03;99612.44;4926496;28;20031;-88
2022/06/20 07:09:52;;;;;;;4.05;1.90;;;;;;;18.65;76.68;99607.97;4950284;28;20510;-88
2022/06/20 07:12:30;;;;;;;5.07;1.95;;;;;;;18.65;75.03;99607.97;4934258;28;20437;-89
2022/06/20 07:15:20;;;;;;;5.50;1.92;;;;;;;18.42;75.76;99605.47;4925148;28;20027;-88
2022/06/20 07:17:56;;;;;;;7.38;2.35;;;;;;;18.58;76.82;99604.38;4918078;28;20607;-88
2022/06/20 07:20:25;;;;;;;4.38;2.08;;;;;;;18.51;75.52;99607.03;4924380;28;20287;-88
2022/06/20 07:22:50;;;;;;;;;;;;;;;18.47;76.32;99618.47;4925703;28;20561;-88
2022/06/20 07:25:23;;;;;;;5.15;1.95;;;;;;;18.51;75.82;99617.88;4941791;28;20007;-89
2022/06/20 07:27:55;;;;;;;5.38;2.33;;;;;;;18.27;75.64;99628.28;4942139;28;20031;-88
2022/06/20 07:30:23;;;;;;;4.97;2.20;;;;;;;18.13;75.59;99633.56;4917172;28;20466;-89
2022/06/20 07:32:53;;;;;;;7.22;1.92;;;;;;;18.26;75.71;99638.28;4940889;28;20038;-89
2022/06/20 07:35:21;;;;;;;4.82;1.90;;;;;;;18.22;74.77;99640.53;4924378;28;20035;-89
2022/06/20 07:37:55;;;;;;;5.97;2.00;;;;;;;18.05;75.34;99649.13;4925467;28;20039;-89
2022/06/20 07:40:27;;;;;;;5.28;2.10;;;;;;;18.23;75.66;99658.44;4926739;28;20055;-89
2022/06/20 07:42:56;;;;;;;5.75;2.13;;;;;;;18.26;76.45;99670.75;4926582;28;20031;-90
2022/06/20 07:45:32;;;;;;;6.57;2.03;;;;;;;18.42;76.32;99667.75;4925455;28;20123;-89
2022/06/20 07:48:06;;;;;;;6.20;2.40;;;;;;;18.41;77.18;99671.50;4921434;28;20031;-90
2022/06/20 07:50:37;;;;;;;8.50;2.30;;;;;;;18.46;76.09;99676.38;4927241;28;20015;-90
2022/06/20 07:53:12;;;;;;;6.75;2.20;;;;;;;18.36;76.75;99684.78;4925687;28;20052;-89
2022/06/20 07:55:41;;;;;;;5.05;2.22;;;;;;;18.40;76.58;99691.50;4926159;28;20063;-89
2022/06/20 07:58:12;;;;;;;7.40;2.63;;;;;;;18.36;75.94;99692.91;4924402;28;20050;-89
2022/06/20 08:00:43;;;;;;;6.47;2.15;;;;;;;18.33;76.44;99695.19;4924104;28;20055;-90
2022/06/20 08:03:16;;;;;;;7.93;2.17;;;;;;;18.43;76.36;99699.22;4924738;28;20373;-89
2022/06/20 08:05:46;;;;;;;5.78;2.30;;;;;;;18.33;74.24;99693.31;4925707;28;20552;-89
2022/06/20 08:08:26;;;;;;;5.25;2.30;;;;;;;18.46;75.51;99701.56;4934011;28;20169;-89
2022/06/20 08:10:59;;;;;;;8.93;2.40;;;;;;;18.51;75.28;99706.41;4941802;28;20126;-89
2022/06/20 08:13:33;;;;;;;5.63;2.20;;;;;;;18.56;75.83;99706.66;4921158;28;20038;-89
2022/06/20 08:16:03;;;;;;;9.23;2.60;;;;;;;18.59;75.73;99703.56;4938553;28;20038;-89
2022/06/20 08:18:29;;;;;;;5.70;2.28;;;;;;;18.51;75.68;99703.69;4938404;28;20458;-89
2022/06/20 08:21:02;;;;;;;5.70;2.47;;;;;;;18.40;74.43;99704.19;4941792;28;20031;-89
2022/06/20 08:23:32;;;;;;;7.57;2.60;;;;;;;18.26;74.38;99700.53;4921805;28;20031;-90
2022/06/20 08:26:01;;;;;;;4.55;2.17;;;;;;;18.26;73.64;99695.13;4924211;28;20079;-89
2022/06/20 08:28:40;;;;;;;7.50;2.30;;;;;;;18.16;73.49;99681.91;4922911;28;20054;-89
2022/06/20 08:31:17;;;;;;;8.32;2.35;;;;;;;18.20;74.54;99685.06;4925119;28;20510;-89
2022/06/20 08:33:46;;;;;;;6.72;2.25;;;;;;;18.43;74.47;99688.38;4924651;28;20102;-88
2022/06/20 08:36:23;;;;;;;;;;;;;;;18.69;73.69;99689.69;4941118;28;20035;-89
2022/06/20 08:39:16;;;;;;;4.13;2.17;;;;;;;18.78;74.17;99702.88;4923930;28;19973;-89
2022/06/20 08:42:19;;;;;;;3.10;1.70;;;;;;;18.69;71.76;99723.03;4941940;28;20465;-89
2022/06/20 08:45:06;;;;;;;5.00;2.10;;;;;;;18.92;71.99;99730.94;4934535;28;20054;-89
2022/06/20 08:47:56;;;;;;;5.13;2.08;;;;;;;19.07;72.19;99739.81;4937436;28;20026;-89
2022/06/20 08:50:30;;;;;;;6.00;1.90;;;;;;;18.88;70.60;99746.75;4957475;28;20301;-89
2022/06/20 08:53:22;;;;;;;4.25;1.80;;;;;;;18.90;70.35;99746.53;4937563;28;20497;-89
2022/06/20 08:56:02;;;;;;;5.20;1.75;;;;;;;18.91;68.60;99745.50;4923290;28;20111;-89
2022/06/20 08:58:40;;;;;;;4.10;1.77;;;;;;;19.14;69.69;99754.25;4944350;28;20015;-86
2022/06/20 09:01:18;;;;;;;4.35;1.73;;;;;;;19.18;69.49;99758.22;4940405;28;20046;-87
2022/06/20 09:03:58;;;;;;;4.43;1.40;;;;;;;19.02;67.22;99755.84;4926184;28;20038;-87
2022/06/20 09:06:36;;;;;;;3.00;1.58;;;;;;;18.91;67.69;99763.63;4920619;28;20385;-87
2022/06/20 09:09:57;;;;;;;3.78;1.40;;;;;;;18.81;67.92;99761.28;4942138;28;20026;-86
2022/06/20 09:12:33;;;;;;;4.75;1.42;;;;;;;18.82;67.10;99755.66;4838203;29;20037;-87
2022/06/20 09:15:10;;;;;;;5.35;1.30;;;;;;;18.84;67.47;99755.47;4933658;28;20117;-86
2022/06/20 09:17:42;;;;;;;3.25;1.20;;;;;;;18.80;67.62;99756.88;4954334;28;20062;-87
2022/06/20 09:20:24;;;;;;;2.65;1.17;;;;;;;18.85;66.72;99757.13;4942582;28;20077;-89
2022/06/20 09:23:11;;;;;;;4.07;1.40;;;;;;;19.11;66.57;99749.22;4934670;28;20063;-87
2022/06/20 09:25:42;;;;;;;3.53;1.33;;;;;;;18.98;66.33;99748.28;4925949;28;20031;-89
2022/06/20 09:28:36;;;;;;;3.35;1.23;;;;;;;18.99;66.29;99748.09;4920139;28;20019;-89
2022/06/20 09:31:39;;;;;;;4.40;1.23;;;;;;;19.09;65.09;99754.00;4939751;28;20031;-89
2022/06/20 09:34:21;;;;;;;3.30;0.90;;;;;;;19.14;66.37;99751.53;4936732;28;20043;-89
2022/06/20 09:36:56;;;;;;;4.88;1.20;;;;;;;19.19;64.53;99756.34;4920166;28;20027;-89
2022/06/20 09:39:43;;;;;;;3.25;1.25;;;;;;;19.31;65.17;99760.19;4944256;28;20023;-88
2022/06/20 09:42:45;;;;;;;3.45;1.30;;;;;;;19.30;65.78;99780.19;4949889;28;20035;-89
2022/06/20 09:45:38;;;;;;;4.38;1.50;;;;;;;19.33;65.11;99784.38;4924387;28;20031;-89
2022/06/20 09:48:31;;;;;;;3.92;1.33;;;;;;;19.38;63.72;99781.91;4925955;28;20030;-90
2022/06/20 09:51:11;;;;;;;3.60;1.40;;;;;;;19.34;64.51;99780.63;4920923;28;20498;-89
2022/06/20 09:54:15;;;;;;;4.53;1.40;;;;;;;19.30;65.39;99788.34;4915980;28;20035;-88
2022/06/20 09:57:03;;;;;;;4.22;1.35;;;;;;;19.29;65.03;99789.38;4917843;28;20324;-89
2022/06/20 09:59:38;;;;;;;3.05;1.50;;;;;;;19.40;64.75;99796.16;4924615;28;20027;-89
2022/06/20 10:02:41;;;;;;;5.28;1.63;;;;;;;19.38;65.04;99790.06;4935073;28;20102;-89
2022/06/20 10:05:23;;;;;;;4.53;1.30;;;;;;;19.38;64.51;99784.63;4938707;28;20042;-89
2022/06/20 10:08:24;;;;;;;2.50;1.30;;;;;;;19.29;63.39;99777.69;4937191;28;20343;-89
2022/06/20 10:10:57;;;;;;;7.88;1.70;;;;;;;19.28;63.54;99787.69;4937694;28;20368;-88
2022/06/20 10:13:32;;;;;;;6.03;1.83;;;;;;;19.07;62.78;99791.31;4941968;28;20029;-92
2022/06/20 10:16:17;;;;;;;3.20;1.60;;;;;;;19.10;63.20;99790.91;4935464;29;20019;-91
2022/06/20 10:18:53;;;;;;;3.35;1.95;;;;;;;19.04;62.90;99794.41;4956269;28;20544;-91
2022/06/20 10:21:32;;;;;;;3.92;1.50;;;;;;;19.30;63.47;99787.50;4929435;28;20043;-92
2022/06/20 10:24:14;;;;;;;3.67;1.70;;;;;;;19.49;64.07;99790.38;4928582;29;20031;-91
2022/06/20 10:26:50;;;;;;;4.53;1.77;;;;;;;19.37;62.51;99786.50;4948005;28;20026;-91
2022/06/20 10:29:24;;;;;;;3.40;1.80;;;;;;;19.32;62.46;99777.28;4952546;29;20497;-91
2022/06/20 10:31:52;;;;;;;5.07;1.95;;;;;;;19.46;61.86;99781.78;4943559;28;20481;-91
2022/06/20 10:34:34;;;;;;;5.70;2.00;;;;;;;19.27;61.43;99787.91;4959546;28;20055;-91
2022/06/20 10:37:44;;;;;;;5.78;2.10;;;;;;;19.09;60.94;99797.38;4947536;28;20492;-91
2022/06/20 10:40:23;;;;;;;2.83;2.10;;;;;;;19.31;62.54;99806.28;4952974;28;20050;-92
2022/06/20 10:42:54;;;;;;;6.43;2.15;;;;;;;19.47;61.91;99803.28;4960931;28;20057;-90
2022/06/20 10:45:47;;;;;;;3.13;1.73;;;;;;;19.47;61.41;99803.28;4955249;28;20027;-92
2022/06/20 10:48:50;;;;;;;6.28;2.13;;;;;;;19.31;61.11;99800.84;4922870;29;20028;-91
2022/06/20 10:51:31;;;;;;;5.90;2.30;;;;;;;19.23;60.04;99806.44;4952065;28;20065;-92
2022/06/20 10:54:00;;;;;;;4.90;2.10;;;;;;;19.41;61.37;99803.25;4949724;29;20027;-92
2022/06/20 10:57:02;;;;;;;4.45;1.95;;;;;;;19.56;61.02;99804.00;4926352;29;20458;-92
2022/06/20 10:59:30;;;;;;;5.28;2.28;;;;;;;19.69;59.87;99795.91;4941804;29;20036;-91
2022/06/20 11:02:15;;;;;;;3.55;2.15;;;;;;;19.74;59.58;99792.59;4941605;29;20152;-91
2022/06/20 11:05:00;;;;;;;4.82;2.10;;;;;;;19.88;59.77;99798.97;4941788;29;20134;-91
2022/06/20 11:07:56;;;;;;;3.10;1.70;;;;;;;19.98;60.99;99800.25;4925938;29;20031;-91
2022/06/20 11:11:03;;;;;;;6.10;2.45;;;;;;;19.72;57.50;99810.97;4941763;29;20042;-92
2022/06/20 11:13:58;;;;;;;5.03;1.98;;;;;;;19.93;58.36;99796.47;4915515;29;20050;-92
2022/06/20 11:16:47;;;;;;;4.22;2.17;;;;;;;19.95;58.26;99805.25;4941765;29;20118;-92
2022/06/20 11:19:31;;;;;;;4.20;2.17;;;;;;;19.93;57.13;99802.75;4941696;29;20031;-92
2022/06/20 11:22:15;;;;;;;3.95;1.90;;;;;;;19.86;56.29;99809.16;4944621;29;20027;-92
2022/06/20 11:25:00;;;;;;;3.88;1.90;;;;;;;19.55;54.14;99806.91;4926907;29;20374;-92
2022/06/20 11:27:53;;;;;;;4.35;1.85;;;;;;;19.70;54.68;99808.44;4941968;29;20123;-93
2022/06/20 11:30:57;;;;;;;5.95;2.20;;;;;;;19.81;56.04;99799.72;4925928;29;20035;-92
2022/06/20 11:34:00;;;;;;;6.13;2.40;;;;;;;19.90;54.68;99796.88;4941602;29;20027;-91
2022/06/20 11:36:16;;;;;;;5.43;1.90;;;;;;;20.08;54.93;99791.72;4958131;29;20121;-92
2022/06/20 11:39:05;;;;;;;4.43;2.10;;;;;;;19.97;54.91;99792.31;4926483;29;20545;-94
2022/06/20 11:41:33;;;;;;;;;;;;;;;19.94;55.01;99798.97;4927655;29;20110;-93
2022/06/20 11:44:07;;;;;;;3.90;1.67;;;;;;;19.98;55.20;99796.69;4926596;29;19914;-92
2022/06/20 11:46:59;;;;;;;4.28;2.00;;;;;;;19.96;55.55;99796.91;4928914;29;20097;-95
2022/06/20 11:50:03;;;;;;;3.88;1.70;;;;;;;19.76;54.10;99798.66;4943634;29;20054;-94
2022/06/20 11:52:53;;;;;;;4.03;2.00;;;;;;;19.58;56.28;99796.50;4924338;29;20501;-94
2022/06/20 11:55:34;;;;;;;2.55;1.73;;;;;;;19.77;56.35;99797.63;4906447;29;20493;-95
2022/06/20 11:58:08;;;;;;;3.75;2.03;;;;;;;19.89;55.81;99790.63;4957774;28;20037;-93
2022/06/20 12:00:44;;;;;;;5.20;2.20;;;;;;;19.78;53.62;99797.44;4960673;28;20039;-93
2022/06/20 12:03:31;;;;;;;3.10;1.63;;;;;;;19.87;54.68;99791.84;4946910;28;20435;-90
2022/06/20 12:06:23;;;;;;;4.53;1.95;;;;;;;19.89;54.16;99795.19;4940258;28;20035;-90
2022/06/20 12:08:59;;;;;;;2.42;1.65;;;;;;;19.92;53.01;99797.50;4945527;29;20501;-91
2022/06/20 12:11:27;;;;;;;3.78;1.65;;;;;;;20.21;54.85;99790.91;4926001;28;20035;-90
2022/06/20 12:14:02;;;;;;;3.53;1.75;;;;;;;20.24;52.03;99794.06;4950017;28;20580;-89
2022/06/20 12:16:54;;;;;;;3.22;1.80;;;;;;;20.27;52.39;99790.09;4958729;28;20043;-91
2022/06/20 12:24:59;;;;;;;3.60;1.83;;;;;;;20.34;52.69;99793.69;4951104;28;20069;-91
2022/06/20 12:27:26;;;;;;;4.93;2.15;;;;;;;20.17;52.35;99790.50;4936717;28;20039;-93
2022/06/20 12:29:52;;;;;;;5.80;1.90;;;;;;;20.12;51.96;99787.56;4928928;28;20132;-92
2022/06/20 12:32:24;;;;;;;3.90;1.88;;;;;;;20.14;52.64;99785.47;4928870;28;20475;-90
2022/06/20 12:35:05;;;;;;;2.83;1.70;;;;;;;20.15;53.80;99783.59;4930600;28;20043;-87
2022/06/20 12:37:42;;;;;;;4.15;1.70;;;;;;;20.28;52.77;99772.75;4927162;28;20027;-90
2022/06/20 12:40:20;;;;;;;3.90;1.50;;;;;;;20.29;50.42;99778.00;4928316;28;20099;-90
2022/06/20 12:43:09;;;;;;;5.38;1.80;;;;;;;20.42;50.23;99785.38;4963761;28;20040;-90
2022/06/20 12:45:56;;;;;;;3.50;1.50;;;;;;;20.62;52.23;99777.25;4927497;28;20062;-90
2022/06/20 12:48:28;;;;;;;3.22;1.00;;;;;;;20.86;52.80;99778.56;4964395;28;20067;-90
2022/06/20 12:51:12;;;;;;;2.80;1.15;;;;;;;20.94;53.00;99775.63;4943290;28;20830;-89
2022/06/20 12:53:51;;;;;;;4.25;1.67;;;;;;;20.91;51.36;99770.59;4942774;28;20398;-90
2022/06/20 12:56:40;;;;;;;2.55;1.23;;;;;;;20.93;51.50;99765.78;4927629;28;20023;-90
2022/06/20 12:59:12;;;;;;;2.92;1.40;;;;;;;20.79;48.18;99777.69;4950174;28;20038;-89
2022/06/20 13:02:09;;;;;;;1.77;1.10;;;;;;;20.63;48.11;99774.34;4960427;28;20071;-90
2022/06/20 13:04:47;;;;;;;2.70;1.40;;;;;;;20.78;48.61;99774.13;4899571;28;20042;-90
2022/06/20 13:07:15;;;;;;;1.95;1.33;;;;;;;20.69;48.97;99770.78;4961915;28;21031;-89
2022/06/20 13:10:18;;;;;;;2.25;1.40;;;;;;;20.71;48.33;99768.69;4929123;28;20113;-89
2022/06/20 13:13:20;;;;;;;3.47;1.20;;;;;;;20.88;50.28;99774.56;4958591;28;20022;-89
2022/06/20 13:16:04;;;;;;;3.13;1.30;;;;;;;20.97;48.81;99776.03;4945233;28;20354;-89
2022/06/20 13:18:44;;;;;;;3.50;1.60;;;;;;;20.90;49.09;99779.81;4960637;28;20045;-90
2022/06/20 13:21:22;;;;;;;4.05;1.33;;;;;;;20.95;49.84;99782.72;4924072;28;20053;-89
2022/06/20 13:24:21;;;;;;;3.40;1.75;;;;;;;20.92;48.89;99784.00;4927983;28;20070;-89
2022/06/20 13:26:56;;;;;;;3.78;1.55;;;;;;;20.95;46.63;99789.00;4945297;28;20049;-89
2022/06/20 13:29:29;;;;;;;3.53;1.50;;;;;;;20.97;48.93;99778.75;4929662;28;20058;-89
2022/06/20 13:32:01;;;;;;;2.45;1.30;;;;;;;21.10;49.02;99787.94;4962543;28;20031;-88